Time;durP1;ratioP1;P1;durP2;ratioP2;P2;SDS_P1;SDS_P2;PMS_P1;PMS_P2;Temp;Humidity;BMP_temperature;BMP_pressure;BME280_temperature;BME280_humidity;BME280_pressure;Samples;Min_cycle;Max_cycle;Signal;HPM_P1;HPM_P2
2021/01/20 00:02:23;;;;;;;0.88;0.88;;;4.50;76.90;;;;;;5032844;28;20064;-86
2021/01/20 00:04:48;;;;;;;1.20;0.70;;;4.50;77.00;;;;;;5046007;28;20029;-86
2021/01/20 00:07:14;;;;;;;1.98;0.75;;;4.50;77.00;;;;;;5053741;28;20025;-86
2021/01/20 00:09:40;;;;;;;0.80;0.80;;;4.50;77.10;;;;;;5035516;28;20592;-86
2021/01/20 00:12:07;;;;;;;0.90;0.80;;;4.50;76.80;;;;;;5035384;28;20501;-87
2021/01/20 00:14:32;;;;;;;0.90;0.90;;;4.50;76.50;;;;;;5051684;28;20040;-86
2021/01/20 00:16:58;;;;;;;1.65;1.00;;;4.40;76.80;;;;;;5046537;28;20108;-86
2021/01/20 00:19:24;;;;;;;0.73;0.73;;;4.40;77.00;;;;;;5038652;28;20028;-87
2021/01/20 00:21:49;;;;;;;1.02;0.82;;;4.40;76.40;;;;;;5032352;28;20104;-86
2021/01/20 00:24:15;;;;;;;1.10;0.90;;;4.40;76.60;;;;;;5041216;28;20033;-86
2021/01/20 00:26:40;;;;;;;0.80;0.80;;;4.40;77.30;;;;;;5047587;28;20048;-86
2021/01/20 00:29:06;;;;;;;1.05;0.95;;;4.40;76.80;;;;;;5048623;28;20418;-86
2021/01/20 00:31:32;;;;;;;0.80;0.80;;;4.40;76.90;;;;;;5054137;28;20036;-87
2021/01/20 00:33:58;;;;;;;1.00;0.90;;;4.30;76.90;;;;;;5034342;28;20024;-86
2021/01/20 00:36:23;;;;;;;1.83;1.10;;;4.30;77.00;;;;;;5052117;28;20473;-87
2021/01/20 00:38:49;;;;;;;1.25;0.90;;;4.30;77.20;;;;;;5034820;28;20426;-86
2021/01/20 00:41:17;;;;;;;0.82;0.82;;;4.20;77.30;;;;;;5049927;28;20092;-86
2021/01/20 00:43:43;;;;;;;0.80;0.80;;;4.30;76.80;;;;;;5033656;28;20134;-86
2021/01/20 00:46:09;;;;;;;2.13;1.10;;;4.30;76.90;;;;;;5050462;28;20501;-86
2021/01/20 00:48:37;;;;;;;0.90;0.90;;;4.30;77.00;;;;;;5032457;28;20025;-86
2021/01/20 00:51:02;;;;;;;0.93;0.93;;;4.30;76.80;;;;;;5051611;28;20033;-86
2021/01/20 00:53:28;;;;;;;0.68;0.68;;;4.30;76.70;;;;;;5045246;28;20510;-86
2021/01/20 00:55:54;;;;;;;1.85;1.00;;;4.30;76.70;;;;;;5036638;28;20017;-86
2021/01/20 00:58:50;;;;;;;1.08;0.80;;;4.30;76.60;;;;;;5063394;28;20158;-86
2021/01/20 01:01:15;;;;;;;1.83;1.10;;;4.40;76.40;;;;;;5016088;28;20028;-86
2021/01/20 01:03:41;;;;;;;2.15;1.00;;;4.40;76.70;;;;;;5060335;28;20036;-86
2021/01/20 01:06:06;;;;;;;1.30;1.20;;;4.40;76.30;;;;;;5041837;28;20029;-86
2021/01/20 01:08:32;;;;;;;0.95;0.90;;;4.50;76.40;;;;;;5035206;28;20108;-86
2021/01/20 01:10:58;;;;;;;1.58;1.20;;;4.50;76.30;;;;;;5038699;28;20040;-86
2021/01/20 01:13:24;;;;;;;1.15;1.05;;;4.50;76.20;;;;;;5034490;28;20724;-86
2021/01/20 01:15:50;;;;;;;0.93;0.93;;;4.50;76.10;;;;;;5035377;28;20441;-86
2021/01/20 01:18:15;;;;;;;0.90;0.90;;;4.60;76.10;;;;;;5055046;28;20017;-86
2021/01/20 01:20:41;;;;;;;0.90;0.90;;;4.60;75.90;;;;;;5042065;28;20075;-87
2021/01/20 01:23:07;;;;;;;0.88;0.88;;;4.60;76.00;;;;;;5034354;28;20017;-86
2021/01/20 01:25:32;;;;;;;0.88;0.88;;;4.70;76.40;;;;;;5037754;28;20021;-87
2021/01/20 01:27:59;;;;;;;0.80;0.80;;;4.70;75.80;;;;;;5031604;28;20482;-86
2021/01/20 01:30:24;;;;;;;0.90;0.82;;;4.70;75.90;;;;;;5033892;28;20033;-87
2021/01/20 01:32:50;;;;;;;0.80;0.80;;;4.80;75.80;;;;;;5050107;28;20075;-86
2021/01/20 01:35:16;;;;;;;0.95;0.82;;;4.90;75.60;;;;;;5033368;28;20112;-86
2021/01/20 01:37:41;;;;;;;0.70;0.70;;;4.90;75.40;;;;;;5062949;28;20029;-86
2021/01/20 01:40:07;;;;;;;2.58;1.10;;;5.00;75.50;;;;;;5034960;28;20033;-86
2021/01/20 01:42:33;;;;;;;1.02;0.90;;;5.00;75.10;;;;;;5058968;28;20112;-86
2021/01/20 01:45:00;;;;;;;0.80;0.80;;;5.00;74.60;;;;;;5040007;28;20565;-86
2021/01/20 01:47:25;;;;;;;2.60;0.82;;;5.00;74.80;;;;;;5030217;28;20120;-86
2021/01/20 01:49:55;;;;;;;1.05;0.90;;;5.10;74.50;;;;;;5033522;28;20128;-86
2021/01/20 01:52:21;;;;;;;0.90;0.80;;;5.10;74.50;;;;;;5058817;28;20062;-86
2021/01/20 01:54:51;;;;;;;0.90;0.90;;;5.10;74.70;;;;;;5059306;28;20081;-87
2021/01/20 01:57:16;;;;;;;0.70;0.70;;;5.20;74.40;;;;;;5071711;28;20025;-87
2021/01/20 01:59:42;;;;;;;0.90;0.80;;;5.20;74.30;;;;;;5032585;28;20366;-86
2021/01/20 02:02:07;;;;;;;1.02;0.82;;;5.20;74.60;;;;;;5033781;28;20017;-86
2021/01/20 02:04:36;;;;;;;1.73;0.80;;;5.20;74.10;;;;;;5043106;28;20115;-86
2021/01/20 02:07:01;;;;;;;1.00;0.80;;;5.20;74.30;;;;;;5059748;28;20036;-86
2021/01/20 02:09:28;;;;;;;0.70;0.70;;;5.20;74.00;;;;;;5043260;28;20158;-86
2021/01/20 02:12:04;;;;;;;0.70;0.70;;;5.20;73.90;;;;;;5051595;28;20035;-86
2021/01/20 02:14:53;;;;;;;0.80;0.80;;;5.20;74.40;;;;;;5046685;28;20406;-86
2021/01/20 02:17:52;;;;;;;0.70;0.70;;;5.10;74.30;;;;;;5032194;28;20025;-86
2021/01/20 02:20:21;;;;;;;2.10;0.90;;;5.00;74.70;;;;;;5032281;28;20021;-86
2021/01/20 02:22:51;;;;;;;1.98;1.10;;;5.00;74.70;;;;;;5050900;28;20064;-86
2021/01/20 02:25:26;;;;;;;1.10;1.00;;;5.00;74.90;;;;;;5053978;28;20012;-86
2021/01/20 02:28:24;;;;;;;0.90;0.90;;;5.00;75.00;;;;;;5041625;28;20100;-86
2021/01/20 02:30:50;;;;;;;1.27;0.90;;;4.90;75.20;;;;;;5032760;28;20107;-87
2021/01/20 02:33:21;;;;;;;0.82;0.82;;;4.90;75.30;;;;;;5048636;28;20049;-87
2021/01/20 02:35:58;;;;;;;1.08;0.90;;;4.90;75.40;;;;;;5049351;28;20025;-86
2021/01/20 02:38:25;;;;;;;1.65;0.70;;;4.90;75.40;;;;;;5046318;28;20444;-86
2021/01/20 02:40:50;;;;;;;0.70;0.70;;;4.90;75.60;;;;;;5045647;28;20064;-87
2021/01/20 02:43:23;;;;;;;0.80;0.68;;;4.80;75.70;;;;;;5050366;28;20037;-87
2021/01/20 02:45:48;;;;;;;0.70;0.70;;;4.80;75.80;;;;;;5033129;28;20021;-87
2021/01/20 02:48:14;;;;;;;0.80;0.80;;;4.80;75.70;;;;;;5035331;28;20017;-86
2021/01/20 02:50:40;;;;;;;1.38;0.90;;;4.80;75.80;;;;;;5037524;28;20029;-86
2021/01/20 02:53:12;;;;;;;0.93;0.75;;;4.70;75.90;;;;;;5031625;28;20029;-86
2021/01/20 02:55:40;;;;;;;1.50;1.10;;;4.70;76.00;;;;;;5038134;28;20511;-86
2021/01/20 02:58:09;;;;;;;1.33;0.90;;;4.60;76.00;;;;;;5038298;28;20036;-86
2021/01/20 03:00:38;;;;;;;0.80;0.80;;;4.60;76.20;;;;;;5051043;28;20131;-86
2021/01/20 03:03:07;;;;;;;0.90;0.90;;;4.60;76.30;;;;;;5035016;28;20107;-86
2021/01/20 03:05:34;;;;;;;0.95;0.90;;;4.50;76.30;;;;;;5032984;28;20063;-86
2021/01/20 03:08:01;;;;;;;0.65;0.65;;;4.50;76.40;;;;;;5031491;28;20025;-86
2021/01/20 03:10:26;;;;;;;1.08;0.80;;;4.50;76.60;;;;;;5034485;28;20029;-86
2021/01/20 03:12:52;;;;;;;0.70;0.70;;;4.50;76.60;;;;;;5035781;28;20083;-85
2021/01/20 03:15:22;;;;;;;0.82;0.75;;;4.50;76.70;;;;;;5049045;28;20025;-86
2021/01/20 03:17:48;;;;;;;1.05;0.95;;;4.50;76.60;;;;;;5028952;28;20079;-86
2021/01/20 03:20:14;;;;;;;0.82;0.82;;;4.50;76.70;;;;;;5052038;28;20052;-87
2021/01/20 03:22:40;;;;;;;2.03;0.80;;;4.50;76.70;;;;;;5031968;28;20099;-86
2021/01/20 03:25:06;;;;;;;0.80;0.80;;;4.50;76.70;;;;;;5036907;28;20076;-87
2021/01/20 03:27:31;;;;;;;1.23;0.80;;;4.40;76.80;;;;;;5037730;28;20543;-86
2021/01/20 03:29:57;;;;;;;0.82;0.82;;;4.40;76.80;;;;;;5031241;28;20029;-86
2021/01/20 03:32:23;;;;;;;1.27;0.77;;;4.40;77.00;;;;;;5039583;28;20027;-86
2021/01/20 03:34:48;;;;;;;1.10;0.98;;;4.40;77.00;;;;;;5041207;28;20105;-86
2021/01/20 03:37:14;;;;;;;0.90;0.90;;;4.40;77.00;;;;;;5035510;28;20017;-85
2021/01/20 03:39:39;;;;;;;0.95;0.90;;;4.40;77.10;;;;;;5049465;28;20062;-86
2021/01/20 03:42:05;;;;;;;1.20;0.80;;;4.40;77.10;;;;;;5056776;28;20497;-86
2021/01/20 03:44:31;;;;;;;1.20;0.90;;;4.40;77.10;;;;;;5035950;28;20120;-86
2021/01/20 03:46:57;;;;;;;1.42;0.90;;;4.40;77.20;;;;;;5031877;28;20033;-86
2021/01/20 03:49:22;;;;;;;0.90;0.90;;;4.30;77.20;;;;;;5048426;28;20512;-86
2021/01/20 03:51:48;;;;;;;1.10;1.00;;;4.30;77.20;;;;;;5049991;28;20108;-86
2021/01/20 03:54:14;;;;;;;1.00;0.98;;;4.30;77.30;;;;;;5028012;28;20026;-86
2021/01/20 03:56:39;;;;;;;1.10;0.90;;;4.30;77.30;;;;;;5030739;28;20025;-86
2021/01/20 04:01:34;;;;;;;1.75;1.20;;;4.30;77.50;;;;;;5055879;28;20044;-70
2021/01/20 04:04:00;;;;;;;2.22;1.13;;;4.30;77.20;;;;;;5067654;28;20036;-70
2021/01/20 04:06:25;;;;;;;1.05;0.90;;;4.30;77.20;;;;;;5071046;28;20029;-69
2021/01/20 04:08:51;;;;;;;1.10;1.00;;;4.40;77.20;;;;;;5071574;28;20103;-69
2021/01/20 04:11:18;;;;;;;0.80;0.80;;;4.40;77.20;;;;;;5072673;28;20025;-68
2021/01/20 04:13:44;;;;;;;1.33;1.10;;;4.40;77.30;;;;;;5074849;28;20112;-70
2021/01/20 04:16:09;;;;;;;1.13;0.80;;;4.40;77.20;;;;;;5076539;28;20056;-68
2021/01/20 04:18:35;;;;;;;0.75;0.75;;;4.40;77.20;;;;;;5074441;28;20056;-69
2021/01/20 04:21:00;;;;;;;1.30;1.10;;;4.40;77.10;;;;;;5075189;28;20021;-68
2021/01/20 04:23:26;;;;;;;0.80;0.80;;;4.40;77.20;;;;;;5073813;28;20488;-69
2021/01/20 04:25:51;;;;;;;1.98;0.70;;;4.50;77.10;;;;;;5069906;28;20024;-68
2021/01/20 04:28:17;;;;;;;0.90;0.90;;;4.50;77.20;;;;;;5072337;28;20074;-70
2021/01/20 04:30:42;;;;;;;1.23;1.10;;;4.50;77.20;;;;;;5071139;28;20075;-69
2021/01/20 04:33:08;;;;;;;0.80;0.80;;;4.50;77.10;;;;;;5071523;28;20095;-68
2021/01/20 04:35:34;;;;;;;1.00;0.90;;;4.60;77.10;;;;;;5071046;28;20031;-69
2021/01/20 04:37:59;;;;;;;0.98;0.90;;;4.60;77.00;;;;;;5073307;28;20023;-68
2021/01/20 04:40:25;;;;;;;3.15;0.90;;;4.60;76.90;;;;;;5072634;28;20104;-70
2021/01/20 04:42:50;;;;;;;1.25;0.80;;;4.60;76.90;;;;;;5072022;28;20082;-68
2021/01/20 04:45:17;;;;;;;1.38;1.00;;;4.70;77.30;;;;;;5068824;28;20035;-69
2021/01/20 04:47:43;;;;;;;1.20;0.93;;;4.70;76.80;;;;;;5072261;28;20067;-69
2021/01/20 04:50:12;;;;;;;0.85;0.82;;;4.70;76.80;;;;;;5069181;28;20120;-69
2021/01/20 04:52:40;;;;;;;2.38;0.90;;;4.80;76.70;;;;;;5069111;28;20064;-69
2021/01/20 04:55:08;;;;;;;0.80;0.80;;;4.80;76.70;;;;;;5070132;28;20063;-68
2021/01/20 04:57:34;;;;;;;1.30;1.20;;;4.80;76.60;;;;;;5071895;28;20032;-69
2021/01/20 05:00:02;;;;;;;1.25;1.15;;;4.80;76.50;;;;;;5066982;28;20037;-69
2021/01/20 05:02:29;;;;;;;1.60;0.90;;;4.80;76.50;;;;;;5072200;28;20444;-69
2021/01/20 05:04:55;;;;;;;0.88;0.88;;;4.80;77.00;;;;;;5070397;28;20116;-71
2021/01/20 05:07:21;;;;;;;1.73;0.90;;;4.80;76.60;;;;;;5072728;28;20104;-69
2021/01/20 05:09:46;;;;;;;0.88;0.88;;;4.80;76.60;;;;;;5053711;28;20082;-70
2021/01/20 05:12:32;;;;;;;2.42;0.85;;;4.80;76.70;;;;;;5069912;28;20025;-70
2021/01/20 05:14:58;;;;;;;0.80;0.80;;;4.80;76.80;;;;;;5070009;28;20094;-70
2021/01/20 05:17:24;;;;;;;1.52;0.77;;;4.80;76.40;;;;;;5071875;28;20025;-68
2021/01/20 05:19:49;;;;;;;0.73;0.73;;;4.80;76.50;;;;;;5070959;28;20443;-69
2021/01/20 05:22:15;;;;;;;1.27;0.80;;;4.80;76.40;;;;;;5071057;28;20025;-69
2021/01/20 05:24:40;;;;;;;1.02;0.93;;;4.80;76.50;;;;;;5069842;28;20033;-70
2021/01/20 05:27:06;;;;;;;2.05;0.80;;;4.90;76.50;;;;;;5069975;28;20050;-69
2021/01/20 05:29:32;;;;;;;0.98;0.90;;;4.90;76.60;;;;;;5070334;28;20032;-69
2021/01/20 05:32:17;;;;;;;0.95;0.90;;;4.90;76.40;;;;;;5071238;28;20045;-69
2021/01/20 05:34:57;;;;;;;1.08;0.98;;;4.90;76.40;;;;;;5069478;28;20028;-69
2021/01/20 05:37:22;;;;;;;0.80;0.75;;;5.00;76.40;;;;;;5052671;28;20033;-69
2021/01/20 05:39:48;;;;;;;0.80;0.80;;;5.00;76.10;;;;;;5070734;28;20404;-68
2021/01/20 05:42:13;;;;;;;0.80;0.80;;;5.10;76.20;;;;;;5070595;28;20025;-69
2021/01/20 05:44:39;;;;;;;0.80;0.80;;;5.10;76.00;;;;;;5068708;28;20048;-70
2021/01/20 05:47:12;;;;;;;0.75;0.70;;;5.10;75.90;;;;;;5071719;28;20033;-69
2021/01/20 05:49:39;;;;;;;3.35;1.15;;;5.10;75.70;;;;;;5069422;28;20063;-69
2021/01/20 05:52:15;;;;;;;4.18;2.75;;;5.10;75.60;;;;;;5071069;28;20034;-68
2021/01/20 05:54:41;;;;;;;0.80;0.80;;;5.10;75.80;;;;;;5067375;28;20028;-69
2021/01/20 05:57:21;;;;;;;1.17;0.80;;;5.20;75.70;;;;;;5069771;28;20061;-69
2021/01/20 05:59:52;;;;;;;2.05;1.20;;;5.20;75.60;;;;;;5066714;28;20468;-69
2021/01/20 06:02:19;;;;;;;1.75;1.25;;;5.20;75.60;;;;;;5070748;28;20391;-69
2021/01/20 06:04:46;;;;;;;6.15;3.78;;;5.20;75.60;;;;;;5069566;28;20033;-68
2021/01/20 06:07:13;;;;;;;1.52;1.00;;;5.20;75.60;;;;;;5069810;28;20032;-69
2021/01/20 06:09:42;;;;;;;0.90;0.90;;;5.20;75.70;;;;;;5070167;28;20041;-68
2021/01/20 06:12:09;;;;;;;0.90;0.82;;;5.20;75.60;;;;;;5070247;28;20523;-70
2021/01/20 06:14:35;;;;;;;0.80;0.80;;;5.10;75.60;;;;;;5068852;28;20539;-69
2021/01/20 06:17:29;;;;;;;1.00;0.75;;;5.10;75.60;;;;;;5071220;28;20111;-68
2021/01/20 06:20:00;;;;;;;0.77;0.70;;;5.10;75.60;;;;;;5068866;28;20020;-69
2021/01/20 06:22:27;;;;;;;2.95;1.50;;;5.10;75.80;;;;;;5059880;28;20020;-69
2021/01/20 06:25:01;;;;;;;0.80;0.80;;;5.00;75.70;;;;;;5070995;28;20074;-69
2021/01/20 06:27:31;;;;;;;0.75;0.75;;;5.00;75.70;;;;;;5067843;28;20024;-69
2021/01/20 06:30:13;;;;;;;1.00;1.00;;;4.90;75.80;;;;;;5069947;28;20047;-69
2021/01/20 06:32:45;;;;;;;1.10;1.00;;;4.90;75.70;;;;;;5069663;28;20362;-69
2021/01/20 06:35:11;;;;;;;0.90;0.90;;;4.90;75.80;;;;;;5068776;28;20031;-69
2021/01/20 06:37:41;;;;;;;0.88;0.88;;;4.90;75.80;;;;;;5070256;28;20029;-69
2021/01/20 06:40:20;;;;;;;2.63;1.88;;;4.90;75.80;;;;;;5069775;28;20056;-69
2021/01/20 06:42:46;;;;;;;1.67;1.13;;;4.90;75.90;;;;;;5050339;28;20024;-68
2021/01/20 06:45:13;;;;;;;1.13;0.77;;;4.90;75.90;;;;;;5049477;28;20484;-70
2021/01/20 06:47:58;;;;;;;1.45;0.80;;;4.90;75.90;;;;;;5069457;28;20040;-69
2021/01/20 06:50:24;;;;;;;2.05;0.73;;;4.90;75.90;;;;;;5069311;28;20024;-70
2021/01/20 06:53:07;;;;;;;0.75;0.75;;;4.90;75.90;;;;;;5068437;28;20090;-70
2021/01/20 06:55:41;;;;;;;1.00;0.98;;;4.90;75.80;;;;;;5068491;28;20029;-70
2021/01/20 06:58:30;;;;;;;0.98;0.98;;;4.90;75.70;;;;;;5070482;28;20020;-70
2021/01/20 07:00:59;;;;;;;1.65;1.00;;;4.90;75.80;;;;;;5069693;28;20122;-71
2021/01/20 07:03:43;;;;;;;0.90;0.90;;;4.90;75.80;;;;;;5068600;28;20441;-69
2021/01/20 07:06:40;;;;;;;0.88;0.88;;;4.90;75.80;;;;;;5067849;28;20115;-70
2021/01/20 07:09:14;;;;;;;1.10;1.00;;;4.90;76.20;;;;;;5052195;28;20370;-70
2021/01/20 07:12:01;;;;;;;7.00;4.63;;;5.00;75.80;;;;;;5068982;28;20162;-71
2021/01/20 07:14:28;;;;;;;1.30;1.20;;;5.00;75.80;;;;;;5049823;28;20039;-68
2021/01/20 07:16:55;;;;;;;1.10;0.90;;;5.00;75.60;;;;;;5069023;28;20020;-69
2021/01/20 07:19:27;;;;;;;1.13;1.02;;;5.00;75.50;;;;;;5069634;28;20094;-69
2021/01/20 07:21:53;;;;;;;1.50;1.00;;;5.00;75.70;;;;;;5069767;28;20020;-70
2021/01/20 07:24:20;;;;;;;1.20;1.10;;;4.90;75.70;;;;;;5067209;28;20025;-68
2021/01/20 07:26:49;;;;;;;1.27;1.17;;;5.00;75.60;;;;;;5065815;28;20052;-69
2021/01/20 07:29:18;;;;;;;1.35;1.10;;;5.00;75.60;;;;;;5063208;28;20491;-69
2021/01/20 07:31:48;;;;;;;2.10;1.90;;;5.00;75.40;;;;;;5063453;28;20029;-68
2021/01/20 07:34:15;;;;;;;3.00;2.08;;;5.00;75.40;;;;;;5067824;28;20044;-69
2021/01/20 07:36:40;;;;;;;2.20;1.60;;;5.00;75.40;;;;;;5069806;28;20048;-70
2021/01/20 07:39:22;;;;;;;2.00;1.60;;;5.00;75.50;;;;;;5069436;28;20048;-69
2021/01/20 07:41:58;;;;;;;2.85;1.60;;;5.00;75.40;;;;;;5072659;28;20023;-69
2021/01/20 07:44:28;;;;;;;2.17;1.58;;;5.00;75.40;;;;;;5072698;28;20094;-70
2021/01/20 07:47:00;;;;;;;1.85;1.17;;;5.00;75.50;;;;;;5073571;28;20025;-70
2021/01/20 07:49:26;;;;;;;1.52;1.17;;;5.00;75.50;;;;;;5074120;28;20100;-70
2021/01/20 07:52:09;;;;;;;1.40;1.30;;;5.00;75.60;;;;;;5073656;28;20133;-70
2021/01/20 07:54:48;;;;;;;1.95;1.10;;;5.00;75.70;;;;;;5071617;28;20060;-71
2021/01/20 07:57:18;;;;;;;2.35;1.30;;;5.00;75.50;;;;;;5073374;28;20201;-70
2021/01/20 07:59:44;;;;;;;1.92;1.17;;;5.00;75.30;;;;;;5073468;28;20043;-70
2021/01/20 08:02:16;;;;;;;1.08;1.02;;;5.10;75.30;;;;;;5073256;28;20032;-70
2021/01/20 08:04:42;;;;;;;1.48;1.38;;;5.10;75.30;;;;;;5073573;28;20058;-70
2021/01/20 08:07:09;;;;;;;1.38;1.27;;;5.10;75.40;;;;;;5075225;28;20036;-70
2021/01/20 08:09:38;;;;;;;2.25;1.23;;;5.10;75.20;;;;;;5074111;28;20100;-70
2021/01/20 08:12:10;;;;;;;1.35;1.25;;;5.20;75.20;;;;;;5073871;28;20067;-70
2021/01/20 08:14:37;;;;;;;2.08;1.48;;;5.20;75.10;;;;;;5071855;28;20031;-70
2021/01/20 08:17:04;;;;;;;1.30;1.20;;;5.30;75.00;;;;;;5073423;28;20040;-71
2021/01/20 08:19:31;;;;;;;1.40;1.30;;;5.30;75.00;;;;;;5072917;28;20444;-71
2021/01/20 08:21:58;;;;;;;1.33;1.23;;;5.30;74.70;;;;;;5072792;28;20031;-69
2021/01/20 08:24:23;;;;;;;2.55;1.40;;;5.30;74.70;;;;;;5071067;28;20024;-70
2021/01/20 08:27:00;;;;;;;3.15;1.80;;;5.40;74.70;;;;;;5072792;28;20428;-70
2021/01/20 08:29:27;;;;;;;1.85;1.42;;;5.40;74.50;;;;;;5073030;28;20056;-69
2021/01/20 08:32:09;;;;;;;1.77;1.40;;;5.40;74.50;;;;;;5072710;28;20152;-70
2021/01/20 08:34:36;;;;;;;;;;;5.40;74.60;;;;;;5064096;28;20507;-70
2021/01/20 08:37:13;;;;;;;1.50;1.40;;;5.40;74.90;;;;;;5072742;28;19931;-70
2021/01/20 08:39:58;;;;;;;1.90;1.70;;;5.40;74.50;;;;;;5072891;28;20104;-70
2021/01/20 08:42:29;;;;;;;1.55;1.42;;;5.50;74.60;;;;;;5072638;28;20036;-70
2021/01/20 08:45:19;;;;;;;1.40;1.30;;;5.50;74.40;;;;;;5071357;28;20057;-70
2021/01/20 08:47:50;;;;;;;1.48;1.38;;;5.50;74.50;;;;;;5072609;28;20040;-69
2021/01/20 08:50:35;;;;;;;1.87;1.30;;;5.60;74.30;;;;;;5072131;28;20032;-69
2021/01/20 08:53:04;;;;;;;3.45;2.45;;;5.60;74.30;;;;;;5071687;28;20297;-69
2021/01/20 08:55:35;;;;;;;7.43;4.63;;;5.70;74.20;;;;;;5070983;28;20116;-70
2021/01/20 08:58:22;;;;;;;19.85;9.90;;;5.80;74.00;;;;;;5072546;28;20013;-70
2021/01/20 09:01:22;;;;;;;15.55;7.40;;;5.90;73.90;;;;;;5071893;28;20020;-69
2021/01/20 09:03:59;;;;;;;12.35;5.72;;;5.90;73.60;;;;;;5053747;28;20043;-69
2021/01/20 09:06:26;;;;;;;5.97;4.00;;;6.00;73.20;;;;;;5072049;28;20484;-70
2021/01/20 09:08:53;;;;;;;2.80;2.08;;;6.00;73.40;;;;;;5071151;28;20029;-70
2021/01/20 09:11:19;;;;;;;2.08;1.65;;;6.10;73.40;;;;;;5071659;28;20020;-70
2021/01/20 09:13:45;;;;;;;2.40;1.90;;;6.10;73.50;;;;;;5072076;28;20439;-70
2021/01/20 09:16:11;;;;;;;2.30;1.77;;;6.20;73.40;;;;;;5070682;28;20063;-70
2021/01/20 09:18:37;;;;;;;2.35;1.80;;;6.20;72.90;;;;;;5072182;28;20021;-70
2021/01/20 09:21:03;;;;;;;2.45;1.38;;;6.30;73.30;;;;;;5070420;28;20112;-70
2021/01/20 09:23:29;;;;;;;1.63;1.30;;;6.30;73.20;;;;;;5071613;28;20039;-72
2021/01/20 09:25:55;;;;;;;1.52;1.40;;;6.30;72.90;;;;;;5051730;28;20489;-73
2021/01/20 09:28:22;;;;;;;2.95;1.65;;;6.40;72.70;;;;;;5072129;28;20020;-71
2021/01/20 09:30:48;;;;;;;1.52;1.42;;;6.40;72.70;;;;;;5070975;28;20025;-73
2021/01/20 09:33:14;;;;;;;3.17;2.10;;;6.50;72.50;;;;;;5058325;28;20021;-73
2021/01/20 09:35:40;;;;;;;2.45;1.63;;;6.50;72.50;;;;;;5050986;28;20024;-73
2021/01/20 09:38:06;;;;;;;2.90;1.33;;;6.60;72.50;;;;;;5064108;28;20143;-73
2021/01/20 09:40:32;;;;;;;3.92;1.83;;;6.60;72.00;;;;;;5053345;28;20021;-68
2021/01/20 09:42:58;;;;;;;1.75;1.50;;;6.60;72.10;;;;;;5071414;28;20226;-71
2021/01/20 09:45:27;;;;;;;1.90;1.50;;;6.70;71.70;;;;;;5068886;28;20913;-69
2021/01/20 09:47:57;;;;;;;1.85;1.30;;;6.70;71.80;;;;;;5071308;28;20030;-70
2021/01/20 09:50:24;;;;;;;1.70;1.40;;;6.80;71.70;;;;;;5071943;28;20484;-70
2021/01/20 09:52:50;;;;;;;1.38;1.27;;;6.90;71.50;;;;;;5071509;28;20376;-70
2021/01/20 09:55:16;;;;;;;1.88;1.58;;;6.90;71.30;;;;;;5070758;28;20063;-71
2021/01/20 09:57:42;;;;;;;1.25;1.15;;;7.00;71.40;;;;;;5075748;22;20351;-69
2021/01/20 10:00:09;;;;;;;4.03;1.38;;;7.00;71.30;;;;;;5011000;28;20505;-68
2021/01/20 10:02:37;;;;;;;1.80;1.48;;;7.10;71.10;;;;;;5022745;28;20077;-68
2021/01/20 10:05:03;;;;;;;1.60;1.30;;;7.10;71.20;;;;;;5009367;28;20022;-69
2021/01/20 10:07:28;;;;;;;0.88;0.85;;;7.10;71.20;;;;;;5011134;28;20025;-68
2021/01/20 10:09:54;;;;;;;1.30;1.20;;;7.20;71.00;;;;;;5011391;28;20102;-68
2021/01/20 10:12:19;;;;;;;1.35;1.25;;;7.20;71.00;;;;;;5010636;28;20030;-68
2021/01/20 10:14:46;;;;;;;1.92;1.30;;;7.30;70.90;;;;;;4996491;28;20049;-68
2021/01/20 10:17:12;;;;;;;2.08;1.23;;;7.30;70.40;;;;;;5011497;28;20529;-70
2021/01/20 10:19:38;;;;;;;2.72;1.40;;;7.40;70.40;;;;;;5010017;28;20105;-66
2021/01/20 10:22:03;;;;;;;1.95;1.40;;;7.40;70.50;;;;;;5005139;28;20030;-66
2021/01/20 10:24:29;;;;;;;1.98;1.23;;;7.50;70.40;;;;;;5000419;28;20029;-66
2021/01/20 10:26:55;;;;;;;1.20;1.10;;;7.50;70.30;;;;;;5002131;28;20406;-66
2021/01/20 10:29:20;;;;;;;1.27;1.17;;;7.50;70.70;;;;;;5013126;28;20034;-66
2021/01/20 10:31:46;;;;;;;1.10;1.00;;;7.50;70.20;;;;;;5009671;28;20029;-66
2021/01/20 10:34:12;;;;;;;3.30;1.85;;;7.60;70.40;;;;;;4993571;28;20045;-66
2021/01/20 10:36:39;;;;;;;4.25;2.45;;;7.60;70.20;;;;;;5009897;28;20022;-68
2021/01/20 10:39:07;;;;;;;1.90;1.35;;;7.60;70.00;;;;;;5011271;28;20022;-67
2021/01/20 10:41:33;;;;;;;2.35;1.52;;;7.60;69.80;;;;;;5010323;28;20465;-67
2021/01/20 10:43:58;;;;;;;3.47;2.05;;;7.70;69.70;;;;;;5009667;28;20105;-68
2021/01/20 10:46:25;;;;;;;6.65;3.60;;;7.70;69.30;;;;;;5003960;28;20036;-67
2021/01/20 10:48:52;;;;;;;5.15;4.10;;;7.80;69.30;;;;;;5006575;28;20025;-67
2021/01/20 10:51:18;;;;;;;3.90;1.90;;;7.80;69.10;;;;;;5007409;28;20037;-67
2021/01/20 10:53:43;;;;;;;1.63;1.40;;;7.80;68.90;;;;;;5007707;28;20390;-67
2021/01/20 10:56:09;;;;;;;1.40;1.30;;;7.90;69.00;;;;;;5008973;28;20069;-66
2021/01/20 10:58:35;;;;;;;1.67;1.30;;;8.00;68.40;;;;;;5007156;28;20096;-67
2021/01/20 11:01:02;;;;;;;2.28;1.33;;;8.00;69.00;;;;;;5010101;28;20446;-67
2021/01/20 11:03:28;;;;;;;2.53;1.23;;;8.10;68.70;;;;;;5009204;28;20116;-67
2021/01/20 11:05:54;;;;;;;1.25;1.13;;;8.10;68.80;;;;;;4986780;28;20526;-67
2021/01/20 11:08:20;;;;;;;3.08;1.60;;;8.20;68.40;;;;;;4983044;28;20494;-67
2021/01/20 11:10:46;;;;;;;2.47;1.30;;;8.30;68.50;;;;;;4996812;28;20450;-67
2021/01/20 11:13:12;;;;;;;1.27;1.10;;;8.40;68.70;;;;;;5010225;28;20478;-67
2021/01/20 11:15:39;;;;;;;1.30;1.20;;;8.50;68.70;;;;;;5009054;28;20145;-67
2021/01/20 11:18:06;;;;;;;1.48;1.23;;;8.60;68.60;;;;;;5009300;28;20061;-67
2021/01/20 11:20:32;;;;;;;2.22;1.45;;;8.70;68.50;;;;;;4997060;28;20391;-67
2021/01/20 11:22:58;;;;;;;2.50;1.42;;;8.80;68.40;;;;;;4996373;28;20033;-67
2021/01/20 11:25:24;;;;;;;4.50;1.70;;;8.90;68.30;;;;;;4991710;28;20064;-67
2021/01/20 11:27:50;;;;;;;1.50;1.30;;;9.00;68.10;;;;;;5010163;28;20038;-67
2021/01/20 11:30:17;;;;;;;1.73;1.25;;;9.10;67.70;;;;;;5005099;28;20156;-67
2021/01/20 11:32:44;;;;;;;1.92;1.40;;;9.20;66.80;;;;;;5008823;28;20496;-67
2021/01/20 11:35:10;;;;;;;3.83;3.10;;;9.20;67.40;;;;;;5009315;28;20034;-68
2021/01/20 11:37:37;;;;;;;1.25;0.90;;;9.30;67.40;;;;;;4990718;28;20091;-67
2021/01/20 11:40:04;;;;;;;3.40;1.20;;;9.40;66.90;;;;;;5010216;28;20037;-67
2021/01/20 11:42:31;;;;;;;1.30;1.20;;;9.40;66.80;;;;;;5001065;28;20022;-67
2021/01/20 11:44:57;;;;;;;2.30;1.60;;;9.50;66.10;;;;;;5008323;28;20052;-67
2021/01/20 11:47:23;;;;;;;2.55;1.70;;;9.50;66.30;;;;;;4997627;28;20470;-67
2021/01/20 11:49:50;;;;;;;1.65;1.23;;;9.50;65.70;;;;;;4999271;28;20042;-68
2021/01/20 11:52:16;;;;;;;2.00;1.10;;;9.50;65.90;;;;;;5001796;28;20034;-67
2021/01/20 11:54:42;;;;;;;1.85;1.20;;;9.50;66.00;;;;;;5008691;28;20088;-67
2021/01/20 11:57:07;;;;;;;1.83;1.50;;;9.50;65.80;;;;;;5009865;28;20028;-67
2021/01/20 11:59:33;;;;;;;2.63;1.50;;;9.50;65.70;;;;;;5006394;28;20038;-67
2021/01/20 12:01:58;;;;;;;2.95;1.30;;;9.60;65.90;;;;;;5009533;28;20030;-67
2021/01/20 12:04:24;;;;;;;5.78;1.40;;;9.60;65.90;;;;;;5001335;28;20038;-67
2021/01/20 12:06:49;;;;;;;1.40;1.27;;;9.60;65.90;;;;;;4998760;28;20120;-67
2021/01/20 12:09:15;;;;;;;2.67;1.35;;;9.70;65.30;;;;;;5004164;28;20061;-67
2021/01/20 12:11:40;;;;;;;2.67;1.50;;;9.60;65.70;;;;;;5015732;28;20433;-67
2021/01/20 12:14:06;;;;;;;1.42;1.20;;;9.60;65.60;;;;;;5008390;28;20026;-67
2021/01/20 12:16:32;;;;;;;1.83;1.55;;;9.60;65.60;;;;;;5009272;28;20028;-67
2021/01/20 12:18:57;;;;;;;1.45;1.20;;;9.60;65.60;;;;;;5002973;28;20151;-68
2021/01/20 12:21:23;;;;;;;3.05;2.00;;;9.60;65.70;;;;;;4993571;28;20053;-67
2021/01/20 12:23:48;;;;;;;3.72;1.67;;;9.60;65.30;;;;;;5007420;28;20034;-68
2021/01/20 12:26:14;;;;;;;2.30;1.75;;;9.60;65.40;;;;;;5001433;28;20030;-68
2021/01/20 12:28:39;;;;;;;4.60;2.20;;;9.60;65.10;;;;;;5002773;28;20036;-67
2021/01/20 12:31:05;;;;;;;2.05;1.35;;;9.70;65.30;;;;;;5011583;28;20112;-68
2021/01/20 12:33:30;;;;;;;2.30;1.48;;;9.70;65.30;;;;;;5010540;28;20045;-68
2021/01/20 12:35:56;;;;;;;3.75;1.70;;;9.70;64.70;;;;;;5011326;28;20033;-67
2021/01/20 12:38:21;;;;;;;3.47;2.10;;;9.70;64.10;;;;;;5010740;28;20030;-66
2021/01/20 12:40:47;;;;;;;2.30;1.70;;;9.70;64.40;;;;;;5001621;28;20061;-66
2021/01/20 12:43:12;;;;;;;1.50;1.30;;;9.60;64.60;;;;;;5005795;28;20094;-67
2021/01/20 12:45:38;;;;;;;1.88;1.60;;;9.60;64.40;;;;;;5010962;28;20053;-66
2021/01/20 12:48:06;;;;;;;1.58;1.40;;;9.60;64.20;;;;;;5008532;28;20042;-66
2021/01/20 12:50:31;;;;;;;3.10;1.52;;;9.60;64.70;;;;;;4993154;28;20030;-68
2021/01/20 12:52:58;;;;;;;1.50;1.40;;;9.60;64.80;;;;;;4993823;28;20557;-66
2021/01/20 12:55:24;;;;;;;2.05;1.23;;;9.60;64.50;;;;;;5010255;28;20042;-69
2021/01/20 12:57:50;;;;;;;3.92;1.50;;;9.50;64.40;;;;;;5003043;28;20026;-68
2021/01/20 13:00:16;;;;;;;1.67;1.00;;;9.50;64.40;;;;;;5012722;28;20065;-67
2021/01/20 13:02:42;;;;;;;1.75;1.33;;;9.50;64.40;;;;;;5002220;28;20029;-67
2021/01/20 13:05:08;;;;;;;2.90;1.50;;;9.50;64.40;;;;;;4995794;28;20482;-68
2021/01/20 13:07:34;;;;;;;2.90;1.65;;;9.50;64.20;;;;;;5010897;28;20681;-66